Time;durP1;ratioP1;P1;durP2;ratioP2;P2;SDS_P1;SDS_P2;PMS_P1;PMS_P2;Temp;Humidity;BMP_temperature;BMP_pressure;BME280_temperature;BME280_humidity;BME280_pressure;Samples;Min_cycle;Max_cycle;Signal;HPM_P1;HPM_P2
2023/05/12 00:00:03;;;;;;;;;;;;;;;;;;5087959;28;19960;-57
2023/05/12 00:02:30;;;;;;;;;;;;;;;;;;5096260;28;19912;-56
2023/05/12 00:04:56;;;;;;;;;;;;;;;;;;5074525;28;20303;-56
2023/05/12 00:07:22;;;;;;;;;;;;;;;;;;5100325;28;20379;-57
2023/05/12 00:09:48;;;;;;;;;;;;;;;;;;5088062;28;19916;-57
2023/05/12 00:12:14;;;;;;;;;;;;;;;;;;5092970;28;19916;-57
2023/05/12 00:14:40;;;;;;;;;;;;;;;;;;5087788;28;20383;-57
2023/05/12 00:17:07;;;;;;;;;;;;;;;;;;5091526;28;19920;-58
2023/05/12 00:19:33;;;;;;;;;;;;;;;;;;5089922;28;20336;-58
2023/05/12 00:21:59;;;;;;;;;;;;;;;;;;5088624;28;19958;-58
2023/05/12 00:24:25;;;;;;;;;;;;;;;;;;5091952;28;19960;-58
2023/05/12 00:26:51;;;;;;;;;;;;;;;;;;5093299;28;19920;-58
2023/05/12 00:29:17;;;;;;;;;;;;;;;;;;5116652;27;19954;-57
2023/05/12 00:31:44;;;;;;;;;;;;;;;;;;5117486;27;19935;-58
2023/05/12 00:34:10;;;;;;;;;;;;;;;;;;5106792;27;20279;-58
2023/05/12 00:36:36;;;;;;;;;;;;;;;;;;5110609;27;19975;-58
2023/05/12 00:39:02;;;;;;;;;;;;;;;;;;5116554;27;19969;-58
2023/05/12 00:41:28;;;;;;;;;;;;;;;;;;5109212;27;19940;-58
2023/05/12 00:43:54;;;;;;;;;;;;;;;;;;5106932;27;20376;-58
2023/05/12 00:46:20;;;;;;;;;;;;;;;;;;5110947;27;19957;-56
2023/05/12 00:48:46;;;;;;;;;;;;;;;;;;5110592;27;19918;-56
2023/05/12 00:51:12;;;;;;;;;;;;;;;;;;5110848;27;20627;-56
2023/05/12 00:53:38;;;;;;;;;;;;;;;;;;5105571;27;19963;-56
2023/05/12 00:56:04;;;;;;;;;;;;;;;;;;5111083;27;19947;-57
2023/05/12 00:58:31;;;;;;;;;;;;;;;;;;5108746;27;19986;-56
2023/05/12 01:00:57;;;;;;;;;;;;;;;;;;5108968;27;20426;-56
2023/05/12 01:03:23;;;;;;;;;;;;;;;;;;5107660;27;19979;-56
2023/05/12 01:05:49;;;;;;;;;;;;;;;;;;5111122;27;19966;-56
2023/05/12 01:08:15;;;;;;;;;;;;;;;;;;5108999;27;19992;-56
2023/05/12 01:10:41;;;;;;;;;;;;;;;;;;5110285;27;19912;-56
2023/05/12 01:13:07;;;;;;;;;;;;;;;;;;5108553;27;19955;-56
2023/05/12 01:15:33;;;;;;;;;;;;;;;;;;5109149;27;20330;-55
2023/05/12 01:18:00;;;;;;;;;;;;;;;;;;5110945;27;19959;-56
2023/05/12 01:20:26;;;;;;;;;;;;;;;;;;5109327;27;20317;-56
2023/05/12 01:22:52;;;;;;;;;;;;;;;;;;5110289;27;19973;-56
2023/05/12 01:25:18;;;;;;;;;;;;;;;;;;5106359;27;19972;-56
2023/05/12 01:27:44;;;;;;;;;;;;;;;;;;5108738;27;19920;-56
2023/05/12 01:30:10;;;;;;;;;;;;;;;;;;5109723;27;19947;-56
2023/05/12 01:32:36;;;;;;;;;;;;;;;;;;5110166;27;19958;-56
2023/05/12 01:35:02;;;;;;;;;;;;;;;;;;5121682;27;19951;-56
2023/05/12 01:37:28;;;;;;;;;;;;;;;;;;5108871;27;19916;-56
2023/05/12 01:39:54;;;;;;;;;;;;;;;;;;5108259;27;19955;-57
2023/05/12 01:42:20;;;;;;;;;;;;;;;;;;5108876;27;19916;-56
2023/05/12 01:44:46;;;;;;;;;;;;;;;;;;5106474;27;19954;-56
2023/05/12 01:47:14;;;;;;;;;;;;;;;;;;5109954;27;19969;-56
2023/05/12 01:49:39;;;;;;;;;;;;;;;;;;5107168;27;19919;-56
2023/05/12 01:52:05;;;;;;;;;;;;;;;;;;5108968;27;19955;-56
2023/05/12 01:54:31;;;;;;;;;;;;;;;;;;5107314;27;20338;-56
2023/05/12 01:56:57;;;;;;;;;;;;;;;;;;5109973;27;19955;-56
2023/05/12 01:59:23;;;;;;;;;;;;;;;;;;5107570;27;19977;-56
2023/05/12 02:01:49;;;;;;;;;;;;;;;;;;5114107;27;19951;-55
2023/05/12 02:04:15;;;;;;;;;;;;;;;;;;5095359;27;19951;-57
2023/05/12 02:06:41;;;;;;;;;;;;;;;;;;5111022;27;19970;-56
2023/05/12 02:09:07;;;;;;;;;;;;;;;;;;5106744;27;20016;-56
2023/05/12 02:11:33;;;;;;;;;;;;;;;;;;5109072;28;19958;-56
2023/05/12 02:13:59;;;;;;;;;;;;;;;;;;5108184;27;19939;-56
2023/05/12 02:16:25;;;;;;;;;;;;;;;;;;5109760;27;19918;-56
2023/05/12 02:18:51;;;;;;;;;;;;;;;;;;5108511;27;19922;-56
2023/05/12 02:21:17;;;;;;;;;;;;;;;;;;5110584;28;20071;-56
2023/05/12 02:23:43;;;;;;;;;;;;;;;;;;5108246;27;19939;-56
2023/05/12 02:26:09;;;;;;;;;;;;;;;;;;5112005;27;19979;-56
2023/05/12 02:28:35;;;;;;;;;;;;;;;;;;5109118;28;20320;-57
2023/05/12 02:31:02;;;;;;;;;;;;;;;;;;5107423;27;19912;-57
2023/05/12 02:33:28;;;;;;;;;;;;;;;;;;5109096;28;19919;-56
2023/05/12 02:35:55;;;;;;;;;;;;;;;;;;5110813;27;19911;-56
2023/05/12 02:38:21;;;;;;;;;;;;;;;;;;5123478;27;20294;-57
2023/05/12 02:40:47;;;;;;;;;;;;;;;;;;5105132;27;20276;-56
2023/05/12 02:43:13;;;;;;;;;;;;;;;;;;5107601;28;19951;-57
2023/05/12 02:45:39;;;;;;;;;;;;;;;;;;5106509;28;19962;-56
2023/05/12 02:48:05;;;;;;;;;;;;;;;;;;5108271;28;20143;-56
2023/05/12 02:50:31;;;;;;;;;;;;;;;;;;5107754;28;20312;-57
2023/05/12 02:52:57;;;;;;;;;;;;;;;;;;5107695;28;19941;-57
2023/05/12 02:55:23;;;;;;;;;;;;;;;;;;5102337;28;20064;-56
2023/05/12 02:57:49;;;;;;;;;;;;;;;;;;5110199;28;19919;-56
2023/05/12 03:00:15;;;;;;;;;;;;;;;;;;5101940;28;19920;-56
2023/05/12 03:02:41;;;;;;;;;;;;;;;;;;5108033;28;19939;-56
2023/05/12 03:05:08;;;;;;;;;;;;;;;;;;5105951;28;20001;-56
2023/05/12 03:07:33;;;;;;;;;;;;;;;;;;5107449;28;19926;-56
2023/05/12 03:10:00;;;;;;;;;;;;;;;;;;5107726;28;20367;-56
2023/05/12 03:12:29;;;;;;;;;;;;;;;;;;5112715;27;19931;-56
2023/05/12 03:14:56;;;;;;;;;;;;;;;;;;5112170;27;19916;-56
2023/05/12 03:17:22;;;;;;;;;;;;;;;;;;5111293;27;19911;-57
2023/05/12 03:19:48;;;;;;;;;;;;;;;;;;5109419;27;20397;-57
2023/05/12 03:22:14;;;;;;;;;;;;;;;;;;5109990;27;20295;-57
2023/05/12 03:24:40;;;;;;;;;;;;;;;;;;5108616;27;19922;-57
2023/05/12 03:27:06;;;;;;;;;;;;;;;;;;5114398;27;20184;-58
2023/05/12 03:29:32;;;;;;;;;;;;;;;;;;5107745;28;19912;-58
2023/05/12 03:31:58;;;;;;;;;;;;;;;;;;5110009;27;19997;-57
2023/05/12 03:34:24;;;;;;;;;;;;;;;;;;5108064;27;19958;-57
2023/05/12 03:36:50;;;;;;;;;;;;;;;;;;5109824;27;20367;-57
2023/05/12 03:39:16;;;;;;;;;;;;;;;;;;5107920;27;19912;-57
2023/05/12 03:41:42;;;;;;;;;;;;;;;;;;5112413;27;19916;-57
2023/05/12 03:44:08;;;;;;;;;;;;;;;;;;5106647;27;19943;-58
2023/05/12 03:46:34;;;;;;;;;;;;;;;;;;5111193;27;19960;-57
2023/05/12 03:49:00;;;;;;;;;;;;;;;;;;5109671;27;19929;-57
2023/05/12 03:51:30;;;;;;;;;;;;;;;;;;5115387;27;19958;-57
2023/05/12 03:53:56;;;;;;;;;;;;;;;;;;5109289;27;19918;-57
2023/05/12 03:56:22;;;;;;;;;;;;;;;;;;5110675;27;19923;-58
2023/05/12 03:58:48;;;;;;;;;;;;;;;;;;5108881;27;20072;-62
2023/05/12 04:01:14;;;;;;;;;;;;;;;;;;5109761;27;19963;-57
2023/05/12 04:03:40;;;;;;;;;;;;;;;;;;5109059;27;19924;-57
2023/05/12 04:06:06;;;;;;;;;;;;;;;;;;5109357;27;19971;-57
2023/05/12 04:08:32;;;;;;;;;;;;;;;;;;5109367;27;19911;-58
2023/05/12 04:10:58;;;;;;;;;;;;;;;;;;5114698;27;19955;-58
2023/05/12 04:13:24;;;;;;;;;;;;;;;;;;5124847;27;19912;-57
2023/05/12 04:15:50;;;;;;;;;;;;;;;;;;5111826;27;19915;-57
2023/05/12 04:18:16;;;;;;;;;;;;;;;;;;5110384;27;19922;-57
2023/05/12 04:20:43;;;;;;;;;;;;;;;;;;5112379;27;19911;-58
2023/05/12 04:23:09;;;;;;;;;;;;;;;;;;5108388;27;19919;-58
2023/05/12 04:25:35;;;;;;;;;;;;;;;;;;5110834;27;19919;-57
2023/05/12 04:28:01;;;;;;;;;;;;;;;;;;5111982;27;19959;-57
2023/05/12 04:30:27;;;;;;;;;;;;;;;;;;5108629;27;20060;-57
2023/05/12 04:32:53;;;;;;;;;;;;;;;;;;5109424;28;20000;-58
2023/05/12 04:35:19;;;;;;;;;;;;;;;;;;5110127;27;19966;-57
2023/05/12 04:37:45;;;;;;;;;;;;;;;;;;5117751;27;19956;-57
2023/05/12 04:40:11;;;;;;;;;;;;;;;;;;5108013;27;20005;-57
2023/05/12 04:42:37;;;;;;;;;;;;;;;;;;5107479;27;19965;-57
2023/05/12 04:45:03;;;;;;;;;;;;;;;;;;5108566;27;19935;-58
2023/05/12 04:47:29;;;;;;;;;;;;;;;;;;5108102;27;19955;-57
2023/05/12 04:49:55;;;;;;;;;;;;;;;;;;5108948;27;19959;-58
2023/05/12 04:52:21;;;;;;;;;;;;;;;;;;5110891;27;19912;-57
2023/05/12 04:54:47;;;;;;;;;;;;;;;;;;5108937;27;19947;-57
2023/05/12 04:57:13;;;;;;;;;;;;;;;;;;5108894;27;19958;-57
2023/05/12 04:59:39;;;;;;;;;;;;;;;;;;5091137;28;19955;-57
2023/05/12 05:02:05;;;;;;;;;;;;;;;;;;5092997;28;19912;-57
2023/05/12 05:04:31;;;;;;;;;;;;;;;;;;5108508;27;20437;-57
2023/05/12 05:06:57;;;;;;;;;;;;;;;;;;5126366;27;19916;-57
2023/05/12 05:09:23;;;;;;;;;;;;;;;;;;5109286;27;19981;-57
2023/05/12 05:11:49;;;;;;;;;;;;;;;;;;5110679;27;19944;-64
2023/05/12 05:14:15;;;;;;;;;;;;;;;;;;5106211;27;19935;-57
2023/05/12 05:16:41;;;;;;;;;;;;;;;;;;5108508;27;19911;-57
2023/05/12 05:19:08;;;;;;;;;;;;;;;;;;5111629;27;19939;-57
2023/05/12 05:21:34;;;;;;;;;;;;;;;;;;5107446;27;20360;-57
2023/05/12 05:24:00;;;;;;;;;;;;;;;;;;5105482;28;19919;-57
2023/05/12 05:26:26;;;;;;;;;;;;;;;;;;5110155;28;19920;-57
2023/05/12 05:28:55;;;;;;;;;;;;;;;;;;5093313;27;20000;-57
2023/05/12 05:31:21;;;;;;;;;;;;;;;;;;5090522;28;20382;-57
2023/05/12 05:33:47;;;;;;;;;;;;;;;;;;5087713;28;20288;-58
2023/05/12 05:36:13;;;;;;;;;;;;;;;;;;5087221;28;19960;-58
2023/05/12 05:38:39;;;;;;;;;;;;;;;;;;5090776;28;19978;-58
2023/05/12 05:41:06;;;;;;;;;;;;;;;;;;5088890;28;19966;-58
2023/05/12 05:43:32;;;;;;;;;;;;;;;;;;5085355;28;20376;-58
2023/05/12 05:45:58;;;;;;;;;;;;;;;;;;5091516;28;19920;-58
2023/05/12 05:48:24;;;;;;;;;;;;;;;;;;5090602;28;19927;-58
2023/05/12 05:50:50;;;;;;;;;;;;;;;;;;5090985;28;20561;-58
2023/05/12 05:53:19;;;;;;;;;;;;;;;;;;5089122;28;19931;-58
2023/05/12 05:55:45;;;;;;;;;;;;;;;;;;5085765;28;20302;-58
2023/05/12 05:58:12;;;;;;;;;;;;;;;;;;5087001;28;19919;-58
2023/05/12 06:00:38;;;;;;;;;;;;;;;;;;5086703;28;20018;-58
2023/05/12 06:03:04;;;;;;;;;;;;;;;;;;5084515;28;20010;-59
2023/05/12 06:05:30;;;;;;;;;;;;;;;;;;5087391;28;19928;-58
2023/05/12 06:07:56;;;;;;;;;;;;;;;;;;5088926;28;20024;-57
2023/05/12 06:10:22;;;;;;;;;;;;;;;;;;5089504;28;19931;-58
2023/05/12 06:12:49;;;;;;;;;;;;;;;;;;5089479;28;19916;-58
2023/05/12 06:15:15;;;;;;;;;;;;;;;;;;5088230;28;20292;-58
2023/05/12 06:17:41;;;;;;;;;;;;;;;;;;5091605;28;19912;-58
2023/05/12 06:20:07;;;;;;;;;;;;;;;;;;5086051;28;19920;-58
2023/05/12 06:22:37;;;;;;;;;;;;;;;;;;5089400;28;20395;-58
2023/05/12 06:25:03;;;;;;;;;;;;;;;;;;5085776;28;19963;-59
2023/05/12 06:27:30;;;;;;;;;;;;;;;;;;5096300;27;19926;-59
2023/05/12 06:29:56;;;;;;;;;;;;;;;;;;5104427;27;19964;-58
2023/05/12 06:32:22;;;;;;;;;;;;;;;;;;5106062;28;19919;-58
2023/05/12 06:34:48;;;;;;;;;;;;;;;;;;5103768;28;19959;-58
2023/05/12 06:37:14;;;;;;;;;;;;;;;;;;5106434;27;19919;-58
2023/05/12 06:39:40;;;;;;;;;;;;;;;;;;5109677;28;20295;-58
2023/05/12 06:42:06;;;;;;;;;;;;;;;;;;5108356;28;19918;-58
2023/05/12 06:44:32;;;;;;;;;;;;;;;;;;5110249;28;19962;-60
2023/05/12 06:46:58;;;;;;;;;;;;;;;;;;5109465;28;20014;-59
2023/05/12 06:49:24;;;;;;;;;;;;;;;;;;5105766;28;19954;-56
2023/05/12 06:51:50;;;;;;;;;;;;;;;;;;5080234;28;19912;-59
2023/05/12 06:54:16;;;;;;;;;;;;;;;;;;5108403;28;19912;-58
2023/05/12 06:56:42;;;;;;;;;;;;;;;;;;5106140;28;19915;-58
2023/05/12 06:59:08;;;;;;;;;;;;;;;;;;5105475;28;20341;-58
2023/05/12 07:01:34;;;;;;;;;;;;;;;;;;5102616;28;19911;-58
2023/05/12 07:04:00;;;;;;;;;;;;;;;;;;5100864;28;20252;-57
2023/05/12 07:06:26;;;;;;;;;;;;;;;;;;5095686;28;20552;-58
2023/05/12 07:08:52;;;;;;;;;;;;;;;;;;5105501;28;19939;-58
2023/05/12 07:11:21;;;;;;;;;;;;;;;;;;5102831;28;20420;-58
2023/05/12 07:13:47;;;;;;;;;;;;;;;;;;5108642;28;19919;-58
2023/05/12 07:16:13;;;;;;;;;;;;;;;;;;5111599;28;20275;-57
2023/05/12 07:18:39;;;;;;;;;;;;;;;;;;5109412;28;19947;-57
2023/05/12 07:21:05;;;;;;;;;;;;;;;;;;5110083;28;19992;-57
2023/05/12 07:23:33;;;;;;;;;;;;;;;;;;5114070;28;19915;-57
2023/05/12 07:25:59;;;;;;;;;;;;;;;;;;5130491;28;19922;-58
2023/05/12 07:28:25;;;;;;;;;;;;;;;;;;5130339;28;20302;-57
2023/05/12 07:30:51;;;;;;;;;;;;;;;;;;5121051;28;20010;-57
2023/05/12 07:33:17;;;;;;;;;;;;;;;;;;5110906;28;19911;-57
2023/05/12 07:35:43;;;;;;;;;;;;;;;;;;5112278;28;19918;-56
2023/05/12 07:38:09;;;;;;;;;;;;;;;;;;5111228;28;19908;-56
2023/05/12 07:40:35;;;;;;;;;;;;;;;;;;5128262;28;19911;-57
2023/05/12 07:43:01;;;;;;;;;;;;;;;;;;5110137;28;19954;-57
2023/05/12 07:45:27;;;;;;;;;;;;;;;;;;5112011;28;19966;-58
2023/05/12 07:47:53;;;;;;;;;;;;;;;;;;5094932;28;19908;-57
2023/05/12 07:50:19;;;;;;;;;;;;;;;;;;5116862;28;19992;-58
2023/05/12 07:52:45;;;;;;;;;;;;;;;;;;5111794;28;20013;-57
2023/05/12 07:55:11;;;;;;;;;;;;;;;;;;5111210;28;19912;-57
2023/05/12 07:57:37;;;;;;;;;;;;;;;;;;5112094;28;19962;-58
2023/05/12 08:00:03;;;;;;;;;;;;;;;;;;5113513;27;19908;-57
2023/05/12 08:02:29;;;;;;;;;;;;;;;;;;5136044;27;19954;-58
2023/05/12 08:04:55;;;;;;;;;;;;;;;;;;5134730;27;19953;-57
2023/05/12 08:07:21;;;;;;;;;;;;;;;;;;5117257;27;19908;-58
2023/05/12 08:09:47;;;;;;;;;;;;;;;;;;5108662;28;19951;-58
2023/05/12 08:12:13;;;;;;;;;;;;;;;;;;5115321;28;19907;-58
2023/05/12 08:14:39;;;;;;;;;;;;;;;;;;5115002;28;19915;-57
2023/05/12 08:17:06;;;;;;;;;;;;;;;;;;5114897;28;19915;-57
2023/05/12 08:19:32;;;;;;;;;;;;;;;;;;5119411;27;20397;-57
2023/05/12 08:21:58;;;;;;;;;;;;;;;;;;5117162;27;19920;-58
2023/05/12 08:24:24;;;;;;;;;;;;;;;;;;5135684;27;20435;-60
2023/05/12 08:26:50;;;;;;;;;;;;;;;;;;5135687;27;20052;-59
2023/05/12 08:29:16;;;;;;;;;;;;;;;;;;5131884;27;19948;-60
2023/05/12 08:31:42;;;;;;;;;;;;;;;;;;5114720;28;19912;-61
2023/05/12 08:34:08;;;;;;;;;;;;;;;;;;5114050;28;19959;-61
2023/05/12 08:36:34;;;;;;;;;;;;;;;;;;5115242;28;20279;-60
2023/05/12 08:39:00;;;;;;;;;;;;;;;;;;5115878;27;19915;-60
2023/05/12 08:41:26;;;;;;;;;;;;;;;;;;5134549;27;19946;-60
2023/05/12 08:43:52;;;;;;;;;;;;;;;;;;5133927;27;19939;-59
2023/05/12 08:46:19;;;;;;;;;;;;;;;;;;5127838;27;19944;-60
2023/05/12 08:48:47;;;;;;;;;;;;;;;;;;5092044;28;19919;-59
2023/05/12 08:51:13;;;;;;;;;;;;;;;;;;5133277;27;20052;-59
2023/05/12 08:53:39;;;;;;;;;;;;;;;;;;5134086;27;19949;-60
2023/05/12 08:56:06;;;;;;;;;;;;;;;;;;5133861;27;19934;-59
2023/05/12 08:58:32;;;;;;;;;;;;;;;;;;5116530;27;20282;-59
2023/05/12 09:00:58;;;;;;;;;;;;;;;;;;5116983;27;19922;-59
2023/05/12 09:03:24;;;;;;;;;;;;;;;;;;5113811;28;19958;-60
2023/05/12 09:05:50;;;;;;;;;;;;;;;;;;5114146;28;19911;-60
2023/05/12 09:08:16;;;;;;;;;;;;;;;;;;5114304;28;20002;-59
2023/05/12 09:10:45;;;;;;;;;;;;;;;;;;5125288;27;19965;-59
2023/05/12 09:13:11;;;;;;;;;;;;;;;;;;5134702;27;20248;-60
2023/05/12 09:15:37;;;;;;;;;;;;;;;;;;5135539;27;19908;-60
2023/05/12 09:18:03;;;;;;;;;;;;;;;;;;5133627;27;19912;-59
2023/05/12 09:20:29;;;;;;;;;;;;;;;;;;5106557;28;19912;-60
2023/05/12 09:22:57;;;;;;;;;;;;;;;;;;5114358;28;20345;-59
2023/05/12 09:25:23;;;;;;;;;;;;;;;;;;5113485;27;19915;-59
2023/05/12 09:27:49;;;;;;;;;;;;;;;;;;5113487;28;19928;-60
2023/05/12 09:30:15;;;;;;;;;;;;;;;;;;5114027;28;19911;-60
2023/05/12 09:32:41;;;;;;;;;;;;;;;;;;5124498;27;19912;-59
2023/05/12 09:35:07;;;;;;;;;;;;;;;;;;5133584;27;20359;-59
2023/05/12 09:37:33;;;;;;;;;;;;;;;;;;5134158;27;20371;-59
2023/05/12 09:40:00;;;;;;;;;;;;;;;;;;5133251;27;19907;-59
2023/05/12 09:42:26;;;;;;;;;;;;;;;;;;5134606;27;20483;-59
2023/05/12 09:44:52;;;;;;;;;;;;;;;;;;5134347;27;19911;-59
2023/05/12 09:47:18;;;;;;;;;;;;;;;;;;5103664;27;19975;-60
2023/05/12 09:49:45;;;;;;;;;;;;;;;;;;5092524;28;19919;-59
2023/05/12 09:52:11;;;;;;;;;;;;;;;;;;5074650;28;19912;-60
2023/05/12 09:54:37;;;;;;;;;;;;;;;;;;5093519;28;20363;-60
2023/05/12 09:57:06;;;;;;;;;;;;;;;;;;5111322;27;19969;-60
2023/05/12 09:59:32;;;;;;;;;;;;;;;;;;5113151;28;19991;-60
2023/05/12 10:01:58;;;;;;;;;;;;;;;;;;5113886;28;19912;-59
2023/05/12 10:04:24;;;;;;;;;;;;;;;;;;5112776;28;19931;-60
2023/05/12 10:06:50;;;;;;;;;;;;;;;;;;5115648;27;19919;-59
2023/05/12 10:09:17;;;;;;;;;;;;;;;;;;5125937;27;19934;-60
2023/05/12 10:11:43;;;;;;;;;;;;;;;;;;5113394;28;19916;-59
2023/05/12 10:14:10;;;;;;;;;;;;;;;;;;5112961;28;19926;-59
2023/05/12 10:16:36;;;;;;;;;;;;;;;;;;5129183;27;19908;-59
2023/05/12 10:19:02;;;;;;;;;;;;;;;;;;5127735;27;19960;-59
2023/05/12 10:21:28;;;;;;;;;;;;;;;;;;5112876;28;19908;-60
2023/05/12 10:23:54;;;;;;;;;;;;;;;;;;5126141;27;19957;-60
2023/05/12 10:26:20;;;;;;;;;;;;;;;;;;5133213;27;19915;-59
2023/05/12 10:28:46;;;;;;;;;;;;;;;;;;5133217;27;19985;-59
2023/05/12 10:31:12;;;;;;;;;;;;;;;;;;5133725;27;20031;-60
2023/05/12 10:33:38;;;;;;;;;;;;;;;;;;5132293;27;20310;-60
2023/05/12 10:36:04;;;;;;;;;;;;;;;;;;5133517;27;20079;-60
2023/05/12 10:38:30;;;;;;;;;;;;;;;;;;5127597;27;19961;-59
2023/05/12 10:40:59;;;;;;;;;;;;;;;;;;5133193;27;19952;-60
2023/05/12 10:43:26;;;;;;;;;;;;;;;;;;5133390;27;19908;-59
2023/05/12 10:45:52;;;;;;;;;;;;;;;;;;5132943;27;19913;-59
2023/05/12 10:48:18;;;;;;;;;;;;;;;;;;5111564;28;20030;-58
2023/05/12 10:50:44;;;;;;;;;;;;;;;;;;5094313;28;19919;-59
2023/05/12 10:53:10;;;;;;;;;;;;;;;;;;5112447;28;20431;-59
2023/05/12 10:55:36;;;;;;;;;;;;;;;;;;5117123;28;20017;-60
2023/05/12 10:58:02;;;;;;;;;;;;;;;;;;5133377;28;19993;-59
2023/05/12 11:00:28;;;;;;;;;;;;;;;;;;5133221;28;19912;-60
2023/05/12 11:02:54;;;;;;;;;;;;;;;;;;5133613;28;20069;-59
2023/05/12 11:05:20;;;;;;;;;;;;;;;;;;5132117;28;20002;-59
2023/05/12 11:07:46;;;;;;;;;;;;;;;;;;5133289;28;19908;-59
2023/05/12 11:10:12;;;;;;;;;;;;;;;;;;5132621;28;19963;-60
2023/05/12 11:12:39;;;;;;;;;;;;;;;;;;5113082;28;19916;-59
2023/05/12 11:15:05;;;;;;;;;;;;;;;;;;5111947;28;19983;-59
2023/05/12 11:17:31;;;;;;;;;;;;;;;;;;5112039;28;19911;-58
2023/05/12 11:19:59;;;;;;;;;;;;;;;;;;5126550;28;20356;-58
2023/05/12 11:22:25;;;;;;;;;;;;;;;;;;5128082;28;20002;-59
2023/05/12 11:24:51;;;;;;;;;;;;;;;;;;5112068;28;19907;-59
2023/05/12 11:27:18;;;;;;;;;;;;;;;;;;5126628;28;19927;-59
2023/05/12 11:29:45;;;;;;;;;;;;;;;;;;5130566;28;19912;-59
2023/05/12 11:32:11;;;;;;;;;;;;;;;;;;5132750;28;19907;-59
2023/05/12 11:34:37;;;;;;;;;;;;;;;;;;5133483;27;20393;-60
2023/05/12 11:37:03;;;;;;;;;;;;;;;;;;5118090;27;19907;-59
2023/05/12 11:39:31;;;;;;;;;;;;;;;;;;5136523;27;19908;-60
2023/05/12 11:41:57;;;;;;;;;;;;;;;;;;5127343;27;20399;-58
2023/05/12 11:44:24;;;;;;;;;;;;;;;;;;5112640;28;19927;-56
2023/05/12 11:46:50;;;;;;;;;;;;;;;;;;5096317;28;19995;-57
2023/05/12 11:49:16;;;;;;;;;;;;;;;;;;5113512;27;19908;-57
2023/05/12 11:51:42;;;;;;;;;;;;;;;;;;5136438;27;20380;-57
2023/05/12 11:54:08;;;;;;;;;;;;;;;;;;5116983;27;20184;-59
2023/05/12 11:56:35;;;;;;;;;;;;;;;;;;5117781;27;19912;-60
2023/05/12 11:59:03;;;;;;;;;;;;;;;;;;5128453;27;19915;-60
2023/05/12 12:01:30;;;;;;;;;;;;;;;;;;5114639;27;19972;-59
2023/05/12 12:03:56;;;;;;;;;;;;;;;;;;5115792;27;19911;-59
2023/05/12 12:06:22;;;;;;;;;;;;;;;;;;5113268;28;19951;-60
2023/05/12 12:08:48;;;;;;;;;;;;;;;;;;5131218;27;19978;-59
2023/05/12 12:11:15;;;;;;;;;;;;;;;;;;5114339;28;19912;-59
2023/05/12 12:13:41;;;;;;;;;;;;;;;;;;5115007;27;19943;-59
2023/05/12 12:16:07;;;;;;;;;;;;;;;;;;5112740;28;19912;-60
2023/05/12 12:18:33;;;;;;;;;;;;;;;;;;5113475;27;20336;-60
2023/05/12 12:20:59;;;;;;;;;;;;;;;;;;5118145;27;19960;-60
2023/05/12 12:23:25;;;;;;;;;;;;;;;;;;5110402;28;19949;-60
2023/05/12 12:25:51;;;;;;;;;;;;;;;;;;5110770;27;19959;-60
2023/05/12 12:28:17;;;;;;;;;;;;;;;;;;5129555;27;20303;-60
2023/05/12 12:30:43;;;;;;;;;;;;;;;;;;5112930;28;19912;-59
2023/05/12 12:33:09;;;;;;;;;;;;;;;;;;5110794;27;20220;-60
2023/05/12 12:35:35;;;;;;;;;;;;;;;;;;5109794;28;20033;-60
2023/05/12 12:38:01;;;;;;;;;;;;;;;;;;5112595;28;19932;-59
2023/05/12 12:40:27;;;;;;;;;;;;;;;;;;5112735;28;19912;-59
2023/05/12 12:42:53;;;;;;;;;;;;;;;;;;5109742;28;20299;-60
2023/05/12 12:45:19;;;;;;;;;;;;;;;;;;5109977;28;19916;-60
2023/05/12 12:47:45;;;;;;;;;;;;;;;;;;5109608;28;19965;-59
2023/05/12 12:50:12;;;;;;;;;;;;;;;;;;5124378;27;19912;-60
2023/05/12 12:52:38;;;;;;;;;;;;;;;;;;5135104;27;19930;-60
2023/05/12 12:55:04;;;;;;;;;;;;;;;;;;5134673;27;19939;-60
2023/05/12 12:57:30;;;;;;;;;;;;;;;;;;5113254;28;20458;-60
2023/05/12 12:59:56;;;;;;;;;;;;;;;;;;5114428;28;20367;-60
2023/05/12 13:02:22;;;;;;;;;;;;;;;;;;5130412;27;19994;-59
2023/05/12 13:04:49;;;;;;;;;;;;;;;;;;5113532;28;19995;-60
2023/05/12 13:07:15;;;;;;;;;;;;;;;;;;5125908;27;19915;-60
2023/05/12 13:09:41;;;;;;;;;;;;;;;;;;5134617;27;19908;-59
2023/05/12 13:12:08;;;;;;;;;;;;;;;;;;5135000;27;20328;-60
2023/05/12 13:14:34;;;;;;;;;;;;;;;;;;5115330;27;19962;-59
2023/05/12 13:17:01;;;;;;;;;;;;;;;;;;5114645;28;20269;-60
2023/05/12 13:19:27;;;;;;;;;;;;;;;;;;5113138;28;19918;-59
2023/05/12 13:21:53;;;;;;;;;;;;;;;;;;5114138;28;19990;-60
2023/05/12 13:24:19;;;;;;;;;;;;;;;;;;5123199;27;19915;-59
2023/05/12 13:26:45;;;;;;;;;;;;;;;;;;5133953;27;20627;-60
2023/05/12 13:29:11;;;;;;;;;;;;;;;;;;5133883;27;19915;-59
2023/05/12 13:31:37;;;;;;;;;;;;;;;;;;5114864;27;19969;-59
2023/05/12 13:34:04;;;;;;;;;;;;;;;;;;5126225;27;19919;-59
2023/05/12 13:36:32;;;;;;;;;;;;;;;;;;5113896;28;20412;-59
2023/05/12 13:38:58;;;;;;;;;;;;;;;;;;5113751;28;20287;-59
2023/05/12 13:41:24;;;;;;;;;;;;;;;;;;5113594;28;19915;-59
2023/05/12 13:43:50;;;;;;;;;;;;;;;;;;5121527;27;20271;-59
2023/05/12 13:46:16;;;;;;;;;;;;;;;;;;5131323;27;20359;-59
2023/05/12 13:48:42;;;;;;;;;;;;;;;;;;5112256;28;19954;-59
2023/05/12 13:51:08;;;;;;;;;;;;;;;;;;5095054;28;20293;-60
2023/05/12 13:53:37;;;;;;;;;;;;;;;;;;5113666;28;19918;-60
2023/05/12 13:56:03;;;;;;;;;;;;;;;;;;5113539;28;20316;-58
2023/05/12 13:58:29;;;;;;;;;;;;;;;;;;5114401;27;20371;-58
2023/05/12 14:00:55;;;;;;;;;;;;;;;;;;5112873;28;19935;-59
2023/05/12 14:03:21;;;;;;;;;;;;;;;;;;5112639;28;19911;-59
2023/05/12 14:05:47;;;;;;;;;;;;;;;;;;5113433;28;19951;-59
2023/05/12 14:08:13;;;;;;;;;;;;;;;;;;5112711;28;20405;-58
2023/05/12 14:10:39;;;;;;;;;;;;;;;;;;5113385;28;19912;-59
2023/05/12 14:13:05;;;;;;;;;;;;;;;;;;5119208;27;19911;-59
2023/05/12 14:15:31;;;;;;;;;;;;;;;;;;5133722;27;20362;-59
2023/05/12 14:17:57;;;;;;;;;;;;;;;;;;5133142;27;19907;-59
2023/05/12 14:20:23;;;;;;;;;;;;;;;;;;5126373;27;19915;-56
2023/05/12 14:22:51;;;;;;;;;;;;;;;;;;5109166;28;20078;-56
2023/05/12 14:25:17;;;;;;;;;;;;;;;;;;5112297;28;19915;-56
2023/05/12 14:27:44;;;;;;;;;;;;;;;;;;5111882;28;20387;-58
2023/05/12 14:30:11;;;;;;;;;;;;;;;;;;5112398;28;20394;-56
2023/05/12 14:32:37;;;;;;;;;;;;;;;;;;5113506;27;19912;-56
2023/05/12 14:35:03;;;;;;;;;;;;;;;;;;5103518;28;19918;-56
2023/05/12 14:37:30;;;;;;;;;;;;;;;;;;5112652;28;19994;-56
2023/05/12 14:39:56;;;;;;;;;;;;;;;;;;5112273;28;19912;-56
2023/05/12 14:42:22;;;;;;;;;;;;;;;;;;5128127;27;20439;-56
2023/05/12 14:44:48;;;;;;;;;;;;;;;;;;5112376;28;19998;-57
2023/05/12 14:47:15;;;;;;;;;;;;;;;;;;5127767;27;19916;-57
2023/05/12 14:49:41;;;;;;;;;;;;;;;;;;5093010;28;19955;-56
2023/05/12 14:52:07;;;;;;;;;;;;;;;;;;5128103;28;19911;-56
2023/05/12 14:54:34;;;;;;;;;;;;;;;;;;5132207;28;19918;-56
2023/05/12 14:57:00;;;;;;;;;;;;;;;;;;5132612;28;19964;-57
2023/05/12 14:59:26;;;;;;;;;;;;;;;;;;5132625;28;20359;-57
2023/05/12 15:01:52;;;;;;;;;;;;;;;;;;5132651;28;19911;-57
2023/05/12 15:04:18;;;;;;;;;;;;;;;;;;5131843;28;19912;-57
2023/05/12 15:06:44;;;;;;;;;;;;;;;;;;5132780;28;20021;-57
2023/05/12 15:09:11;;;;;;;;;;;;;;;;;;5133032;27;20427;-57
2023/05/12 15:11:37;;;;;;;;;;;;;;;;;;5118799;27;20271;-58
2023/05/12 15:14:03;;;;;;;;;;;;;;;;;;5116202;28;19946;-57
2023/05/12 15:16:29;;;;;;;;;;;;;;;;;;5116879;28;20221;-57
2023/05/12 15:18:55;;;;;;;;;;;;;;;;;;5114918;28;19914;-57
2023/05/12 15:21:22;;;;;;;;;;;;;;;;;;5116003;28;19908;-57
2023/05/12 15:23:48;;;;;;;;;;;;;;;;;;5115221;28;19998;-57
2023/05/12 15:26:14;;;;;;;;;;;;;;;;;;5115558;28;19957;-57
2023/05/12 15:28:40;;;;;;;;;;;;;;;;;;5115548;27;19924;-57
2023/05/12 15:31:06;;;;;;;;;;;;;;;;;;5135932;27;19916;-57
2023/05/12 15:33:32;;;;;;;;;;;;;;;;;;5134302;27;19907;-58
2023/05/12 15:35:58;;;;;;;;;;;;;;;;;;5135994;27;19908;-57
2023/05/12 15:38:25;;;;;;;;;;;;;;;;;;5136644;27;19912;-57
2023/05/12 15:40:51;;;;;;;;;;;;;;;;;;5136586;27;19918;-57
2023/05/12 15:43:17;;;;;;;;;;;;;;;;;;5136213;27;19914;-56
2023/05/12 15:45:43;;;;;;;;;;;;;;;;;;5101115;28;19912;-56
2023/05/12 15:48:09;;;;;;;;;;;;;;;;;;5113562;28;20011;-56
2023/05/12 15:50:36;;;;;;;;;;;;;;;;;;5134291;27;19907;-56
2023/05/12 15:53:02;;;;;;;;;;;;;;;;;;5135810;27;19911;-55
2023/05/12 15:55:30;;;;;;;;;;;;;;;;;;5136149;27;20363;-54
2023/05/12 15:57:57;;;;;;;;;;;;;;;;;;5135358;27;19907;-55
2023/05/12 16:00:23;;;;;;;;;;;;;;;;;;5117004;27;19911;-54
2023/05/12 16:02:50;;;;;;;;;;;;;;;;;;5135943;27;19926;-55
2023/05/12 16:05:16;;;;;;;;;;;;;;;;;;5134727;27;19929;-54
2023/05/12 16:07:42;;;;;;;;;;;;;;;;;;5117191;27;19911;-56
2023/05/12 16:10:08;;;;;;;;;;;;;;;;;;5115416;27;19912;-57
2023/05/12 16:12:34;;;;;;;;;;;;;;;;;;5114830;28;19950;-57
2023/05/12 16:15:00;;;;;;;;;;;;;;;;;;5117640;27;19916;-58
2023/05/12 16:17:27;;;;;;;;;;;;;;;;;;5135871;27;19983;-58
2023/05/12 16:19:55;;;;;;;;;;;;;;;;;;5134265;27;19914;-58
2023/05/12 16:22:21;;;;;;;;;;;;;;;;;;5134699;27;19908;-57
2023/05/12 16:24:47;;;;;;;;;;;;;;;;;;5135701;27;19907;-57
2023/05/12 16:27:13;;;;;;;;;;;;;;;;;;5135274;27;19927;-56
2023/05/12 16:29:44;;;;;;;;;;;;;;;;;;5116498;27;19927;-56
2023/05/12 16:32:10;;;;;;;;;;;;;;;;;;5114567;28;19912;-57
2023/05/12 16:34:36;;;;;;;;;;;;;;;;;;5113766;28;19938;-56
2023/05/12 16:37:02;;;;;;;;;;;;;;;;;;5114789;28;19912;-57